Time;durP1;ratioP1;P1;durP2;ratioP2;P2;SDS_P1;SDS_P2;PMS_P1;PMS_P2;Temp;Humidity;BMP_temperature;BMP_pressure;BME280_temperature;BME280_humidity;BME280_pressure;Samples;Min_cycle;Max_cycle;Signal;HPM_P1;HPM_P2
2021/09/05 00:00:23;;;;;;;15.70;8.88;;;;;;;14.62;92.44;98125.13;4960889;28;20031;-63
2021/09/05 00:02:49;;;;;;;13.90;8.32;;;;;;;14.64;92.07;98131.13;4962494;28;20026;-62
2021/09/05 00:05:14;;;;;;;14.40;8.50;;;;;;;14.49;92.45;98131.94;4961415;28;20122;-60
2021/09/05 00:07:40;;;;;;;13.10;8.63;;;;;;;14.57;92.12;98127.09;4960883;28;20018;-62
2021/09/05 00:10:06;;;;;;;15.90;8.63;;;;;;;14.53;91.90;98120.34;4961189;28;20034;-62
2021/09/05 00:12:31;;;;;;;12.18;8.50;;;;;;;14.80;89.82;98129.34;4963231;28;20043;-63
2021/09/05 00:14:57;;;;;;;13.70;8.50;;;;;;;14.53;91.37;98125.59;4962349;28;20105;-61
2021/09/05 00:17:22;;;;;;;13.05;8.55;;;;;;;14.74;90.54;98124.44;4962925;28;20038;-63
2021/09/05 00:19:48;;;;;;;15.00;8.52;;;;;;;14.39;93.18;98119.34;4961307;28;20023;-63
2021/09/05 00:22:13;;;;;;;13.30;8.23;;;;;;;14.64;91.26;98126.72;4958374;28;20038;-63
2021/09/05 00:24:38;;;;;;;13.07;8.38;;;;;;;14.30;92.58;98129.47;4958929;28;20042;-64
2021/09/05 00:27:04;;;;;;;12.18;7.93;;;;;;;14.26;93.06;98126.16;4965258;28;20034;-59
2021/09/05 00:29:29;;;;;;;11.55;7.82;;;;;;;14.51;92.11;98122.22;4960791;28;20024;-62
2021/09/05 00:31:55;;;;;;;13.00;8.60;;;;;;;14.38;90.38;98122.88;4957181;28;20050;-63
2021/09/05 00:34:20;;;;;;;11.40;8.63;;;;;;;13.86;92.70;98125.66;4961584;28;20037;-63
2021/09/05 00:36:46;;;;;;;10.35;7.88;;;;;;;13.95;93.07;98130.44;4960801;28;20038;-63
2021/09/05 00:39:11;;;;;;;15.48;9.07;;;;;;;13.59;94.57;98128.78;4957817;28;20030;-63
2021/09/05 00:41:37;;;;;;;12.95;8.95;;;;;;;13.49;96.14;98130.16;4958897;28;20181;-63
2021/09/05 00:44:04;;;;;;;12.48;8.80;;;;;;;13.41;96.70;98130.56;4959423;28;20280;-60
2021/09/05 00:46:32;;;;;;;15.00;8.57;;;;;;;13.65;95.42;98131.06;4960757;28;20051;-59
2021/09/05 00:49:00;;;;;;;16.70;8.60;;;;;;;13.62;94.37;98133.88;4959275;28;20042;-61
2021/09/05 00:51:31;;;;;;;16.85;8.50;;;;;;;13.57;94.18;98129.78;4959410;28;20520;-60
2021/09/05 00:54:00;;;;;;;17.15;8.68;;;;;;;13.49;95.35;98132.78;4962180;28;20049;-62
2021/09/05 00:56:28;;;;;;;14.10;8.57;;;;;;;13.47;94.87;98132.00;4962574;28;20046;-60
2021/09/05 00:58:54;;;;;;;12.27;8.13;;;;;;;13.34;95.36;98130.94;4962899;28;20027;-63
2021/09/05 01:01:21;;;;;;;12.85;8.48;;;;;;;13.27;95.74;98133.84;4957984;28;20065;-59
2021/09/05 01:03:46;;;;;;;18.38;10.20;;;;;;;13.26;96.14;98131.31;4959487;28;20033;-63
2021/09/05 01:06:12;;;;;;;16.85;9.88;;;;;;;13.36;95.28;98132.59;4956836;28;20035;-60
2021/09/05 01:08:37;;;;;;;12.40;8.68;;;;;;;13.80;93.91;98136.47;4958457;28;20543;-62
2021/09/05 01:11:03;;;;;;;16.88;9.45;;;;;;;13.64;92.85;98132.03;4959567;28;20050;-63
2021/09/05 01:13:29;;;;;;;12.00;8.13;;;;;;;13.46;94.02;98133.78;4958914;28;20054;-60
2021/09/05 01:15:54;;;;;;;20.58;9.27;;;;;;;13.37;93.74;98133.41;4955912;28;20861;-59
2021/09/05 01:18:19;;;;;;;13.73;8.63;;;;;;;13.36;94.01;98137.81;4954200;28;20074;-62
2021/09/05 01:20:45;;;;;;;11.50;7.47;;;;;;;13.95;92.72;98137.44;4954988;28;20126;-64
2021/09/05 01:23:10;;;;;;;13.50;8.32;;;;;;;13.64;94.54;98142.50;4958265;28;20045;-63
2021/09/05 01:25:35;;;;;;;17.05;8.18;;;;;;;13.67;92.45;98142.34;4957692;28;20034;-59
2021/09/05 01:28:01;;;;;;;14.07;8.20;;;;;;;13.66;92.82;98142.44;4961125;28;20038;-62
2021/09/05 01:30:26;;;;;;;15.07;8.02;;;;;;;13.55;93.50;98140.34;4957131;28;20497;-62
2021/09/05 01:32:51;;;;;;;11.38;6.90;;;;;;;13.78;92.85;98146.19;4957317;28;20081;-63
2021/09/05 01:35:17;;;;;;;9.57;6.93;;;;;;;13.50;92.71;98150.22;4955495;28;20019;-61
2021/09/05 01:37:42;;;;;;;10.45;7.30;;;;;;;13.63;91.35;98145.19;4956784;28;20019;-62
2021/09/05 01:40:08;;;;;;;11.88;7.72;;;;;;;13.04;93.18;98149.84;4960274;28;20058;-60
2021/09/05 01:42:33;;;;;;;11.05;6.93;;;;;;;12.71;94.19;98153.16;4957739;28;20054;-63
2021/09/05 01:44:59;;;;;;;13.15;7.47;;;;;;;12.90;92.63;98146.13;4961977;28;20057;-60
2021/09/05 01:47:24;;;;;;;11.23;7.03;;;;;;;12.73;93.46;98156.53;4959845;28;20121;-62
2021/09/05 01:49:50;;;;;;;12.07;6.70;;;;;;;12.93;93.19;98155.59;4960844;28;20502;-61
2021/09/05 01:52:15;;;;;;;15.68;7.38;;;;;;;12.81;92.53;98149.19;4964414;28;20066;-60
2021/09/05 01:54:40;;;;;;;14.50;8.05;;;;;;;12.66;94.39;98163.84;4963226;28;20688;-62
2021/09/05 01:57:06;;;;;;;12.70;7.80;;;;;;;12.82;94.08;98163.97;4966532;28;20141;-62
2021/09/05 01:59:31;;;;;;;13.77;7.53;;;;;;;12.85;93.85;98169.06;4962505;28;20050;-62
2021/09/05 02:01:56;;;;;;;10.90;6.82;;;;;;;13.01;94.99;98163.06;4963801;28;20069;-60
2021/09/05 02:04:22;;;;;;;9.82;7.18;;;;;;;13.19;92.69;98164.78;4960759;28;20077;-60
2021/09/05 02:06:49;;;;;;;16.75;7.60;;;;;;;13.07;92.38;98168.03;4961524;28;20046;-60
2021/09/05 02:09:15;;;;;;;12.30;7.07;;;;;;;12.76;94.54;98169.50;4962681;28;20114;-62
2021/09/05 02:11:40;;;;;;;12.32;7.80;;;;;;;12.47;94.71;98169.06;4960156;28;20045;-63
2021/09/05 02:14:05;;;;;;;11.93;7.38;;;;;;;12.74;95.48;98171.34;4963156;28;20102;-62
2021/09/05 02:16:31;;;;;;;12.68;8.40;;;;;;;12.32;96.36;98167.16;4963925;28;20061;-62
2021/09/05 02:18:56;;;;;;;14.32;7.68;;;;;;;12.43;96.36;98172.75;4961062;28;20575;-59
2021/09/05 02:21:21;;;;;;;9.23;6.53;;;;;;;12.96;93.70;98170.28;4960635;28;20042;-63
2021/09/05 02:23:47;;;;;;;9.88;7.15;;;;;;;12.96;92.95;98165.06;4960378;28;20022;-62
2021/09/05 02:26:12;;;;;;;10.38;6.72;;;;;;;13.23;93.93;98173.34;4962627;28;20039;-61
2021/09/05 02:28:38;;;;;;;10.32;6.93;;;;;;;13.04;94.05;98168.19;4962209;28;20034;-60
2021/09/05 02:31:04;;;;;;;12.07;7.68;;;;;;;12.75;93.50;98173.00;4960608;28;20468;-61
2021/09/05 02:33:29;;;;;;;13.10;7.40;;;;;;;12.39;94.71;98168.59;4961301;28;20459;-62
2021/09/05 02:35:54;;;;;;;11.32;6.47;;;;;;;12.49;94.38;98164.59;4963502;28;20743;-62
2021/09/05 02:38:20;;;;;;;11.40;6.82;;;;;;;12.65;92.82;98171.78;4966363;28;20050;-62
2021/09/05 02:40:46;;;;;;;11.85;7.00;;;;;;;12.67;92.43;98169.94;4966136;28;20551;-60
2021/09/05 02:43:11;;;;;;;10.65;6.72;;;;;;;12.63;93.46;98171.00;4958850;28;20424;-60
2021/09/05 02:45:37;;;;;;;12.52;7.20;;;;;;;12.67;92.83;98172.53;4965564;28;20492;-63
2021/09/05 02:48:06;;;;;;;10.00;7.07;;;;;;;12.62;92.93;98172.75;4965367;28;20464;-61
2021/09/05 02:50:32;;;;;;;10.20;7.18;;;;;;;12.32;94.16;98172.41;4962649;28;20039;-61
2021/09/05 02:52:58;;;;;;;12.27;7.57;;;;;;;11.95;94.74;98181.88;4962352;28;20038;-61
2021/09/05 02:55:24;;;;;;;11.88;6.88;;;;;;;12.25;94.32;98173.59;4960039;28;20133;-60
2021/09/05 02:57:50;;;;;;;10.75;7.38;;;;;;;12.21;93.86;98179.88;4963159;28;20244;-59
2021/09/05 03:00:18;;;;;;;12.10;8.20;;;;;;;12.33;94.36;98176.69;4963606;28;20113;-63
2021/09/05 03:02:43;;;;;;;12.95;8.00;;;;;;;12.37;94.04;98173.03;4963256;28;20027;-65
2021/09/05 03:05:09;;;;;;;13.68;6.90;;;;;;;12.64;93.59;98175.28;4961810;28;20030;-65
2021/09/05 03:07:34;;;;;;;11.55;7.20;;;;;;;12.66;93.21;98173.44;4964123;28;20045;-63
2021/09/05 03:10:00;;;;;;;12.63;8.13;;;;;;;12.49;92.34;98177.69;4964260;28;20117;-66
2021/09/05 03:12:25;;;;;;;12.57;7.75;;;;;;;12.33;94.13;98174.94;4964155;28;20221;-63
2021/09/05 03:14:51;;;;;;;12.85;8.18;;;;;;;12.37;92.77;98167.81;4961859;28;20113;-62
2021/09/05 03:17:17;;;;;;;10.82;7.25;;;;;;;12.47;93.15;98170.84;4962774;28;20035;-65
2021/09/05 03:19:42;;;;;;;12.48;7.55;;;;;;;12.36;92.34;98173.94;4960951;28;20031;-64
2021/09/05 03:22:07;;;;;;;12.57;7.68;;;;;;;12.24;93.70;98171.88;4958588;28;20035;-62
2021/09/05 03:24:33;;;;;;;11.95;7.80;;;;;;;12.27;93.50;98176.97;4957269;28;20046;-65
2021/09/05 03:26:58;;;;;;;11.93;7.97;;;;;;;12.28;93.18;98176.06;4960051;28;20038;-63
2021/09/05 03:29:23;;;;;;;11.70;7.78;;;;;;;12.09;94.07;98179.50;4957935;28;20114;-60
2021/09/05 03:31:49;;;;;;;14.45;8.23;;;;;;;12.05;94.13;98183.16;4964212;28;20035;-63
2021/09/05 03:34:14;;;;;;;14.52;8.43;;;;;;;12.08;93.97;98183.03;4963584;28;20045;-61
2021/09/05 03:36:40;;;;;;;11.75;7.93;;;;;;;12.11;93.55;98188.13;4962754;28;20712;-62
2021/09/05 03:39:05;;;;;;;12.60;8.15;;;;;;;11.97;94.56;98187.88;4960749;28;20050;-61
2021/09/05 03:41:30;;;;;;;11.40;7.63;;;;;;;12.71;93.32;98181.94;4960198;28;20073;-62
2021/09/05 03:43:58;;;;;;;12.40;7.30;;;;;;;12.70;92.58;98190.69;4956572;28;20159;-63
2021/09/05 03:46:23;;;;;;;10.95;7.70;;;;;;;12.50;93.52;98189.88;4959920;28;20125;-60
2021/09/05 03:48:49;;;;;;;11.68;7.85;;;;;;;12.31;93.50;98187.25;4959952;28;20129;-60
2021/09/05 03:51:14;;;;;;;11.43;7.78;;;;;;;12.36;93.32;98202.72;4962051;28;20030;-63
2021/09/05 03:53:40;;;;;;;12.45;7.57;;;;;;;12.05;93.80;98203.22;4960825;28;20044;-61
2021/09/05 03:56:05;;;;;;;14.48;7.85;;;;;;;11.75;94.54;98206.22;4958575;28;20106;-62
2021/09/05 03:58:30;;;;;;;11.68;7.47;;;;;;;11.54;95.02;98207.97;4962030;28;20475;-62
2021/09/05 04:00:57;;;;;;;12.85;8.15;;;;;;;11.71;94.71;98205.50;4959190;28;20139;-62
2021/09/05 04:03:23;;;;;;;12.15;7.63;;;;;;;11.97;93.30;98211.41;4959637;28;20042;-61
2021/09/05 04:05:49;;;;;;;13.93;7.85;;;;;;;11.49;94.13;98209.94;4960671;28;20480;-63
2021/09/05 04:08:15;;;;;;;12.85;7.60;;;;;;;11.56;94.35;98207.00;4960110;28;20480;-63
2021/09/05 04:10:42;;;;;;;12.43;7.55;;;;;;;11.87;92.51;98199.63;4960242;28;20046;-60
2021/09/05 04:13:09;;;;;;;12.95;8.38;;;;;;;11.65;93.57;98203.16;4961283;28;20034;-64
2021/09/05 04:15:37;;;;;;;16.85;8.13;;;;;;;11.84;93.64;98210.22;4961038;28;20038;-60
2021/09/05 04:18:03;;;;;;;11.23;7.30;;;;;;;11.65;93.44;98212.75;4962737;28;20448;-62
2021/09/05 04:20:28;;;;;;;13.68;7.88;;;;;;;11.70;93.60;98211.63;4959405;28;20754;-61
2021/09/05 04:22:54;;;;;;;17.30;8.20;;;;;;;11.64;94.04;98213.66;4958357;28;20061;-63
2021/09/05 04:25:19;;;;;;;13.50;8.20;;;;;;;11.75;93.35;98212.28;4956830;28;20019;-60
2021/09/05 04:27:45;;;;;;;15.68;8.05;;;;;;;11.62;94.69;98213.72;4961107;28;20480;-63
2021/09/05 04:30:11;;;;;;;12.55;7.15;;;;;;;12.14;92.45;98219.34;4961243;28;20063;-60
2021/09/05 04:32:38;;;;;;;14.27;6.88;;;;;;;12.39;93.21;98218.28;4960405;28;21139;-61
2021/09/05 04:35:04;;;;;;;11.10;7.20;;;;;;;12.36;90.95;98207.13;4964058;28;20081;-63
2021/09/05 04:37:30;;;;;;;12.35;7.78;;;;;;;11.88;92.81;98217.00;4959738;28;20046;-61
2021/09/05 04:39:55;;;;;;;14.02;7.35;;;;;;;11.58;93.96;98220.84;4958939;28;20031;-61
2021/09/05 04:42:21;;;;;;;15.98;8.30;;;;;;;11.92;91.99;98226.44;4957084;28;20847;-64
2021/09/05 04:44:47;;;;;;;10.55;7.43;;;;;;;11.94;91.25;98222.00;4953592;28;20410;-61
2021/09/05 04:47:13;;;;;;;13.95;7.55;;;;;;;11.84;93.21;98231.13;4959636;28;20043;-63
2021/09/05 04:49:39;;;;;;;14.45;8.27;;;;;;;11.88;91.90;98227.47;4957765;28;20039;-60
2021/09/05 04:52:06;;;;;;;13.93;7.68;;;;;;;11.97;91.81;98221.03;4958262;28;20247;-61
2021/09/05 04:54:34;;;;;;;11.73;7.93;;;;;;;11.90;92.68;98223.88;4956712;28;20030;-62
2021/09/05 04:57:00;;;;;;;11.15;7.50;;;;;;;11.97;92.66;98232.31;4957551;28;20657;-60
2021/09/05 04:59:25;;;;;;;14.15;7.57;;;;;;;12.30;90.55;98230.00;4959965;28;20035;-63
2021/09/05 05:01:51;;;;;;;11.85;6.88;;;;;;;12.24;91.11;98229.41;4956742;28;20051;-63
2021/09/05 05:04:18;;;;;;;12.73;7.75;;;;;;;12.30;89.37;98243.09;4960854;28;20408;-63
2021/09/05 05:06:44;;;;;;;11.75;7.40;;;;;;;12.38;89.29;98247.97;4959043;28;20046;-62
2021/09/05 05:09:11;;;;;;;11.80;7.53;;;;;;;12.11;90.28;98245.66;4960541;28;20130;-60
2021/09/05 05:11:41;;;;;;;12.10;8.05;;;;;;;12.15;90.79;98252.44;4957121;28;20567;-60
2021/09/05 05:14:06;;;;;;;11.60;6.97;;;;;;;12.36;90.82;98249.81;4960621;28;20023;-60
2021/09/05 05:16:32;;;;;;;10.45;6.60;;;;;;;12.70;88.74;98250.88;4960239;28;20447;-63
2021/09/05 05:19:00;;;;;;;10.38;7.18;;;;;;;12.66;90.33;98258.06;4959862;28;20027;-60
2021/09/05 05:21:27;;;;;;;12.35;7.70;;;;;;;12.40;89.95;98261.81;4960238;28;20027;-62
2021/09/05 05:23:58;;;;;;;11.40;7.18;;;;;;;12.53;89.76;98260.38;4960938;28;20031;-63
2021/09/05 05:26:24;;;;;;;11.93;7.00;;;;;;;12.26;91.84;98265.06;4962334;28;20049;-63
2021/09/05 05:28:49;;;;;;;10.75;6.90;;;;;;;12.60;90.42;98270.56;4957602;28;20050;-62
2021/09/05 05:31:15;;;;;;;8.45;6.00;;;;;;;13.24;89.08;98269.38;4959531;28;20070;-62
2021/09/05 05:33:43;;;;;;;9.82;6.72;;;;;;;12.93;88.19;98270.78;4958455;28;20019;-63
2021/09/05 05:36:08;;;;;;;8.18;5.80;;;;;;;13.59;88.64;98275.53;4959822;28;20039;-60
2021/09/05 05:38:37;;;;;;;11.13;6.80;;;;;;;14.25;85.49;98274.84;4959493;28;20030;-63
2021/09/05 05:41:03;;;;;;;12.50;7.15;;;;;;;15.29;85.66;98277.25;4959401;28;20077;-63
2021/09/05 05:43:28;;;;;;;10.07;7.07;;;;;;;15.17;85.34;98279.63;4959846;28;20404;-61
2021/09/05 05:45:56;;;;;;;11.45;6.65;;;;;;;15.20;82.30;98284.72;4960535;28;20047;-60
2021/09/05 05:48:22;;;;;;;10.85;6.90;;;;;;;15.07;80.97;98281.09;4960195;28;20061;-62
2021/09/05 05:50:47;;;;;;;10.50;7.00;;;;;;;15.04;79.24;98279.47;4959524;28;20070;-62
2021/09/05 05:53:16;;;;;;;11.77;7.47;;;;;;;14.52;80.08;98281.38;4961234;28;20023;-64
2021/09/05 05:55:41;;;;;;;13.10;6.85;;;;;;;14.79;79.66;98274.69;4959146;28;20453;-62
2021/09/05 05:58:09;;;;;;;11.88;7.15;;;;;;;14.55;80.25;98281.22;4957493;28;20034;-61
2021/09/05 06:00:35;;;;;;;12.38;7.20;;;;;;;15.22;78.59;98284.66;4959778;28;20595;-61
2021/09/05 06:03:01;;;;;;;11.10;6.85;;;;;;;15.13;79.29;98280.75;4959685;28;20106;-64
2021/09/05 06:05:27;;;;;;;11.82;6.85;;;;;;;14.57;80.61;98284.59;4959816;28;20035;-61
2021/09/05 06:07:52;;;;;;;9.75;6.85;;;;;;;15.13;78.70;98288.63;4959631;28;20577;-62
2021/09/05 06:10:23;;;;;;;10.25;6.97;;;;;;;15.25;78.50;98286.25;4958994;28;20562;-62
2021/09/05 06:12:48;;;;;;;10.60;7.05;;;;;;;15.15;79.20;98286.75;4961840;28;20601;-65
2021/09/05 06:15:16;;;;;;;12.55;6.68;;;;;;;15.41;78.92;98287.94;4959814;28;20057;-63
2021/09/05 06:17:41;;;;;;;12.38;6.93;;;;;;;15.45;78.57;98288.59;4958229;28;20031;-64
2021/09/05 06:20:07;;;;;;;13.45;8.13;;;;;;;15.75;79.22;98290.44;4959314;28;20758;-65
2021/09/05 06:22:36;;;;;;;11.60;7.57;;;;;;;16.11;78.20;98289.25;4959110;28;20113;-65
2021/09/05 06:25:02;;;;;;;10.85;7.75;;;;;;;16.18;79.09;98285.31;4960463;28;20471;-65
2021/09/05 06:27:28;;;;;;;12.05;7.90;;;;;;;16.24;79.48;98287.59;4957593;28;20063;-64
2021/09/05 06:29:53;;;;;;;12.15;8.18;;;;;;;16.07;80.26;98285.97;4957738;28;20115;-65
2021/09/05 06:32:18;;;;;;;11.30;7.50;;;;;;;17.58;76.82;98291.66;4965534;28;20121;-65
2021/09/05 06:34:44;;;;;;;12.25;8.20;;;;;;;18.96;72.69;98286.78;4964160;28;20023;-65
2021/09/05 06:37:09;;;;;;;13.55;9.18;;;;;;;18.63;73.07;98296.91;4962598;28;20035;-63
2021/09/05 06:39:37;;;;;;;11.60;8.38;;;;;;;20.09;68.17;98298.84;4961479;28;20031;-63
2021/09/05 06:42:03;;;;;;;15.95;9.60;;;;;;;21.38;63.34;98294.13;4962137;28;20047;-65
2021/09/05 06:44:31;;;;;;;14.68;9.18;;;;;;;20.86;65.22;98305.38;4964938;28;20065;-65
2021/09/05 06:47:00;;;;;;;13.45;9.43;;;;;;;22.50;60.34;98307.94;4962227;28;20144;-64
2021/09/05 06:49:25;;;;;;;16.48;9.68;;;;;;;24.35;55.16;98302.22;4961072;28;20037;-65
2021/09/05 06:51:51;;;;;;;15.65;9.88;;;;;;;24.42;55.17;98302.50;4960472;28;20047;-66
2021/09/05 06:54:25;;;;;;;14.77;9.63;;;;;;;24.53;54.09;98304.19;4962827;28;20408;-62
2021/09/05 06:56:50;;;;;;;12.60;9.05;;;;;;;27.49;47.73;98303.22;4959594;28;20049;-65
2021/09/05 06:59:16;;;;;;;11.70;8.95;;;;;;;26.73;48.74;98296.88;4961735;28;20020;-65
2021/09/05 07:01:41;;;;;;;15.35;9.57;;;;;;;28.31;46.49;98307.88;4961613;28;20038;-64
2021/09/05 07:04:07;;;;;;;16.20;9.38;;;;;;;26.89;48.47;98301.47;4962255;28;20023;-63
2021/09/05 07:06:32;;;;;;;12.85;9.13;;;;;;;27.67;46.27;98299.59;4965005;28;20043;-64
2021/09/05 07:09:03;;;;;;;13.05;8.63;;;;;;;29.57;42.63;98298.31;4959966;28;20404;-66
2021/09/05 07:11:28;;;;;;;13.85;8.52;;;;;;;29.62;42.38;98301.31;4962078;28;20049;-63
2021/09/05 07:13:53;;;;;;;11.65;8.82;;;;;;;28.52;43.88;98309.22;4962691;28;20034;-65
2021/09/05 07:16:19;;;;;;;18.83;8.35;;;;;;;29.96;41.36;98308.16;4957229;28;20208;-62
2021/09/05 07:18:44;;;;;;;10.70;8.43;;;;;;;30.82;39.50;98311.44;4959136;28;20038;-64
2021/09/05 07:21:13;;;;;;;11.63;8.88;;;;;;;30.38;40.30;98306.84;4956231;28;20059;-64
2021/09/05 07:23:38;;;;;;;12.00;8.35;;;;;;;30.17;40.82;98311.03;4942190;28;20027;-64
2021/09/05 07:26:04;;;;;;;10.65;8.25;;;;;;;29.97;39.62;98309.84;4943493;28;20046;-64
2021/09/05 07:28:32;;;;;;;11.18;8.10;;;;;;;30.95;38.08;98318.91;4941623;28;20031;-64
2021/09/05 07:30:59;;;;;;;10.50;8.38;;;;;;;28.40;43.06;98314.94;4941478;28;20164;-62
2021/09/05 07:33:24;;;;;;;11.30;8.30;;;;;;;29.79;40.29;98308.28;4941386;28;20036;-64
2021/09/05 07:35:50;;;;;;;10.73;7.85;;;;;;;30.26;38.78;98313.66;4940911;28;20055;-66
2021/09/05 07:38:15;;;;;;;11.88;7.68;;;;;;;33.83;34.00;98316.84;4940208;28;20035;-62
2021/09/05 07:40:40;;;;;;;13.38;8.18;;;;;;;32.13;36.74;98311.66;4942221;28;20046;-65
2021/09/05 07:43:06;;;;;;;10.40;7.78;;;;;;;30.94;38.30;98312.69;4941493;28;20039;-60
2021/09/05 07:45:31;;;;;;;9.88;8.00;;;;;;;32.75;35.71;98312.75;4941045;28;20046;-65
2021/09/05 07:47:56;;;;;;;11.70;7.93;;;;;;;33.28;34.55;98314.13;4938042;28;20043;-60
2021/09/05 07:50:22;;;;;;;11.52;7.45;;;;;;;33.38;34.92;98317.28;4939721;28;20464;-62
2021/09/05 07:52:47;;;;;;;10.88;7.45;;;;;;;33.04;35.71;98318.97;4940578;28;20553;-62
2021/09/05 07:55:15;;;;;;;9.48;7.38;;;;;;;32.34;36.35;98324.25;4938932;28;20051;-64
2021/09/05 07:57:40;;;;;;;9.32;6.85;;;;;;;33.60;34.12;98318.81;4938112;28;20020;-63
2021/09/05 08:00:06;;;;;;;9.32;7.10;;;;;;;34.19;32.75;98321.91;4937620;28;20035;-62
2021/09/05 08:02:31;;;;;;;10.02;7.00;;;;;;;33.66;33.94;98321.78;4939734;28;20109;-64
2021/09/05 08:04:56;;;;;;;9.73;7.40;;;;;;;34.35;34.11;98316.09;4943202;28;20043;-66
2021/09/05 08:07:22;;;;;;;9.47;7.20;;;;;;;32.98;34.85;98319.78;4941358;28;20039;-63
2021/09/05 08:09:47;;;;;;;11.02;7.30;;;;;;;32.49;36.08;98321.47;4944338;28;20270;-63
2021/09/05 08:12:13;;;;;;;10.65;7.32;;;;;;;33.75;34.05;98324.09;4941539;28;20036;-63
2021/09/05 08:14:38;;;;;;;10.75;6.95;;;;;;;34.80;33.24;98323.59;4941355;28;20118;-64
2021/09/05 08:17:04;;;;;;;9.80;6.95;;;;;;;33.47;34.08;98326.03;4939980;28;20075;-63
2021/09/05 08:19:36;;;;;;;9.70;6.90;;;;;;;32.51;35.36;98330.22;4941590;28;20026;-66
2021/09/05 08:22:02;;;;;;;8.55;7.13;;;;;;;32.55;35.44;98325.25;4938772;28;20039;-65
2021/09/05 08:24:33;;;;;;;12.23;6.80;;;;;;;35.12;32.17;98326.41;4938135;28;20035;-63
2021/09/05 08:26:58;;;;;;;9.68;6.88;;;;;;;35.23;32.29;98319.53;4941078;28;20031;-63
2021/09/05 08:29:24;;;;;;;13.52;7.03;;;;;;;31.70;37.44;98331.28;4939629;28;20028;-63
2021/09/05 08:31:51;;;;;;;10.75;7.10;;;;;;;31.51;37.74;98329.22;4942186;28;20930;-63
2021/09/05 08:34:16;;;;;;;9.38;6.70;;;;;;;33.64;34.76;98334.63;4937759;28;20034;-64
2021/09/05 08:36:42;;;;;;;11.02;6.65;;;;;;;34.15;33.70;98320.63;4940686;28;20043;-62
2021/09/05 08:39:07;;;;;;;7.53;5.97;;;;;;;35.42;32.11;98320.47;4940172;28;20034;-61
2021/09/05 08:41:33;;;;;;;9.13;6.13;;;;;;;33.46;36.55;98332.50;4938955;28;20537;-62
2021/09/05 08:43:59;;;;;;;13.73;7.32;;;;;;;31.44;37.63;98328.25;4942844;28;20050;-65
2021/09/05 08:46:25;;;;;;;7.75;6.30;;;;;;;34.97;33.15;98329.38;4941485;28;20043;-62
2021/09/05 08:48:51;;;;;;;9.90;6.30;;;;;;;32.60;36.80;98330.94;4937596;28;20042;-63
2021/09/05 08:51:17;;;;;;;9.02;6.28;;;;;;;34.63;33.90;98334.00;4941100;28;20058;-65
2021/09/05 08:53:42;;;;;;;8.10;6.35;;;;;;;35.06;33.27;98332.69;4941310;28;20035;-63
2021/09/05 08:56:08;;;;;;;8.13;6.20;;;;;;;34.24;34.04;98330.22;4940750;28;20149;-63
2021/09/05 08:58:36;;;;;;;10.20;6.20;;;;;;;33.82;34.75;98332.25;4940123;28;20085;-64
2021/09/05 09:01:27;;;;;;;10.27;6.50;;;;;;;35.12;33.63;98331.84;4935930;28;20040;-63
2021/09/05 09:04:04;;;;;;;7.35;6.05;;;;;;;35.79;32.30;98331.59;4935840;28;20040;-61
2021/09/05 09:06:39;;;;;;;8.02;5.38;;;;;;;34.01;35.38;98335.19;4936317;28;20047;-63
2021/09/05 09:09:05;;;;;;;10.07;6.30;;;;;;;34.50;34.41;98326.72;4940024;28;20777;-66
2021/09/05 09:11:48;;;;;;;7.43;5.95;;;;;;;33.90;35.41;98333.91;4939577;28;20128;-65
2021/09/05 09:14:14;;;;;;;12.40;5.93;;;;;;;35.27;32.93;98328.91;4940908;28;20503;-64
2021/09/05 09:16:39;;;;;;;6.93;5.38;;;;;;;33.96;33.58;98333.91;4938356;28;20028;-66
2021/09/05 09:19:05;;;;;;;8.43;5.60;;;;;;;33.36;33.95;98330.16;4935023;28;20032;-66
2021/09/05 09:21:38;;;;;;;8.88;5.30;;;;;;;33.41;34.16;98325.81;4941996;28;20118;-63
2021/09/05 09:24:13;;;;;;;8.18;5.13;;;;;;;34.91;32.83;98319.41;4943206;28;20027;-64
2021/09/05 09:26:39;;;;;;;6.55;5.00;;;;;;;31.72;36.59;98327.56;4933667;28;20040;-65
2021/09/05 09:29:15;;;;;;;7.45;5.40;;;;;;;30.98;37.89;98323.09;4936876;28;20038;-64
2021/09/05 09:31:40;;;;;;;7.80;5.20;;;;;;;33.59;34.02;98327.97;4935173;28;20556;-66
2021/09/05 09:34:06;;;;;;;10.15;5.32;;;;;;;34.17;33.95;98318.59;4934303;28;20031;-66
2021/09/05 09:36:32;;;;;;;8.25;5.20;;;;;;;34.40;34.31;98325.47;4934983;28;20069;-67
2021/09/05 09:39:10;;;;;;;6.20;4.80;;;;;;;34.35;33.29;98320.66;4935305;28;20393;-65
2021/09/05 09:41:37;;;;;;;6.53;5.00;;;;;;;34.31;32.54;98325.66;4934460;28;20648;-66
2021/09/05 09:44:08;;;;;;;6.72;4.80;;;;;;;33.94;33.21;98321.66;4936130;28;20535;-62
2021/09/05 09:46:37;;;;;;;8.27;5.10;;;;;;;32.14;35.83;98312.47;4934612;28;20505;-65
2021/09/05 09:49:07;;;;;;;8.82;5.20;;;;;;;32.98;34.83;98322.47;4931799;28;20040;-64
2021/09/05 09:51:35;;;;;;;8.25;5.53;;;;;;;31.21;37.64;98318.44;4932622;28;20062;-63
2021/09/05 09:54:01;;;;;;;7.25;5.13;;;;;;;31.47;37.42;98317.13;4937547;28;20031;-64
2021/09/05 09:56:28;;;;;;;9.32;4.82;;;;;;;32.95;35.22;98320.97;4936161;28;20039;-63
2021/09/05 09:59:03;;;;;;;6.15;5.05;;;;;;;33.14;34.22;98322.19;4935469;28;20039;-62
2021/09/05 10:01:30;;;;;;;8.30;5.10;;;;;;;33.57;34.07;98324.63;4934733;28;20449;-63
2021/09/05 10:03:58;;;;;;;7.95;5.18;;;;;;;31.20;37.96;98314.06;4936236;28;20090;-64
2021/09/05 10:06:26;;;;;;;8.82;4.78;;;;;;;33.73;33.72;98319.91;4937605;28;20101;-64
2021/09/05 10:08:59;;;;;;;6.55;5.10;;;;;;;33.32;36.49;98318.09;4948425;28;20287;-63
2021/09/05 10:11:26;;;;;;;8.40;5.07;;;;;;;33.12;34.83;98324.25;4939516;28;20038;-65
2021/09/05 10:13:51;;;;;;;8.10;4.70;;;;;;;32.68;35.10;98325.41;4940458;28;20576;-63
2021/09/05 10:16:17;;;;;;;7.78;5.07;;;;;;;32.91;34.79;98318.91;4939042;28;20039;-59
2021/09/05 10:18:51;;;;;;;6.13;4.80;;;;;;;31.27;35.46;98316.88;4939347;28;20068;-62
2021/09/05 10:21:19;;;;;;;5.80;4.53;;;;;;;31.47;35.00;98312.56;4953614;28;20051;-63
2021/09/05 10:23:56;;;;;;;7.78;4.55;;;;;;;33.16;33.39;98322.81;4939734;28;20027;-65
2021/09/05 10:26:23;;;;;;;5.55;4.40;;;;;;;32.21;34.43;98308.78;4934635;28;20143;-62
2021/09/05 10:28:52;;;;;;;6.75;4.45;;;;;;;34.67;31.47;98313.56;4939109;28;20049;-66
2021/09/05 10:31:41;;;;;;;7.82;4.88;;;;;;;33.27;33.50;98307.03;4938042;28;20038;-62
2021/09/05 10:34:31;;;;;;;9.43;4.85;;;;;;;31.56;34.97;98309.75;4931480;28;20054;-67
2021/09/05 10:37:05;;;;;;;6.60;4.55;;;;;;;31.34;35.21;98307.00;4935721;28;20035;-65
2021/09/05 10:39:33;;;;;;;6.43;4.50;;;;;;;31.63;36.39;98310.66;4938566;28;20027;-65
2021/09/05 10:41:59;;;;;;;7.32;5.07;;;;;;;30.72;38.20;98313.59;4940276;28;20039;-66
2021/09/05 10:44:24;;;;;;;7.63;4.68;;;;;;;31.07;36.57;98305.81;4938669;28;20035;-63
2021/09/05 10:46:52;;;;;;;5.72;4.57;;;;;;;32.41;34.31;98303.56;4952191;28;20835;-67
2021/09/05 10:49:38;;;;;;;8.13;4.80;;;;;;;31.48;35.91;98308.84;4942084;28;20544;-61
2021/09/05 10:52:04;;;;;;;5.50;4.47;;;;;;;31.10;36.59;98295.50;4941308;28;20114;-63
2021/09/05 10:54:32;;;;;;;6.50;4.68;;;;;;;31.39;36.64;98306.41;4939433;28;20757;-65
2021/09/05 10:57:09;;;;;;;9.52;4.93;;;;;;;31.01;36.37;98298.47;4939902;28;20084;-63
2021/09/05 10:59:38;;;;;;;8.68;4.95;;;;;;;31.27;33.98;98300.69;4942303;28;20563;-65
2021/09/05 11:02:07;;;;;;;7.88;4.53;;;;;;;31.55;33.66;98308.09;4940819;28;20054;-63
2021/09/05 11:04:42;;;;;;;7.03;4.72;;;;;;;30.46;35.19;98303.25;4941088;28;20114;-63
2021/09/05 11:07:29;;;;;;;9.02;4.60;;;;;;;29.49;36.95;98306.44;4937385;28;20508;-63
2021/09/05 11:09:58;;;;;;;7.90;4.78;;;;;;;28.36;38.43;98307.38;4940707;28;20103;-65
2021/09/05 11:12:35;;;;;;;6.03;4.82;;;;;;;30.63;36.21;98307.44;4939407;28;20039;-60
2021/09/05 11:15:12;;;;;;;6.15;4.65;;;;;;;30.64;38.03;98302.88;4941081;28;20919;-62
2021/09/05 11:17:37;;;;;;;7.35;4.78;;;;;;;31.40;38.23;98300.03;4954250;28;20047;-61
2021/09/05 11:20:11;;;;;;;5.72;4.50;;;;;;;30.07;37.51;98298.84;4956239;28;20034;-62
2021/09/05 11:22:37;;;;;;;6.63;4.70;;;;;;;29.75;39.80;98300.75;4955581;28;20031;-65
2021/09/05 11:25:05;;;;;;;5.65;4.40;;;;;;;29.41;39.33;98301.94;4957468;28;20027;-66